Date,TemperatureHighF,TemperatureAvgF,TemperatureLowF,DewpointHighF,DewpointAvgF,DewpointLowF,HumidityHigh,HumidityAvg,HumidityLow,PressureMaxIn,PressureMinIn,WindSpeedMaxMPH,WindSpeedAvgMPH,GustSpeedMaxMPH,PrecipitationSumIn
2013-1-1,36,26,17,25,14,3,75,60,43,29.77,29.56,8,4,17,0.00
2013-1-2,26,19,9,20,8,-4,81,63,54,29.97,29.68,8,4,16,0.00
2013-1-3,30,20,8,24,10,-4,79,66,55,29.96,29.70,8,3,21,0.00
2013-1-4,38,32,28,23,20,16,72,61,48,29.73,29.60,14,7,34,0.01
2013-1-5,39,33,26,26,22,18,75,65,55,30.01,29.73,10,3,22,0.00
2013-1-6,40,35,29,31,28,23,90,76,65,29.84,29.62,9,3,17,0.01
2013-1-7,36,26,14,31,19,8,85,73,60,30.13,29.77,6,2,13,2.86
2013-1-8,46,30,22,25,19,16,80,65,41,29.90,29.74,4,1,11,0.00
2013-1-9,51,36,17,35,25,11,86,67,52,29.88,29.52,14,5,34,0.00
2013-1-10,49,37,28,32,26,22,86,65,49,30.16,29.85,8,2,29,0.00
2013-1-11,41,38,31,36,30,25,87,75,62,30.04,29.50,10,6,18,0.07
2013-1-12,52,45,40,47,42,36,94,87,78,29.61,29.55,6,3,12,0.00
2013-1-13,59,52,44,52,48,43,95,85,73,29.59,29.36,9,4,19,0.00
2013-1-14,54,40,31,49,30,18,90,69,50,29.95,29.32,8,3,17,0.02
2013-1-15,42,32,29,23,20,16,77,63,43,29.96,29.77,5,2,10,0.00
2013-1-16,40,33,30,31,25,19,87,74,50,29.77,29.35,6,3,14,0.00
2013-1-17,37,28,20,27,15,6,74,59,45,29.76,29.42,9,4,21,0.00
2013-1-18,30,22,14,17,7,-5,78,55,24,29.97,29.63,9,3,20,0.00
2013-1-19,49,41,30,30,22,13,66,48,37,29.64,29.19,10,4,23,0.00
2013-1-20,48,33,20,36,16,3,80,50,31,29.63,28.99,18,8,49,0.19
2013-1-21,24,21,17,10,5,2,59,51,45,29.62,29.42,8,4,22,0.00
2013-1-22,18,13,8,2,-8,-16,67,40,23,29.73,29.43,13,8,27,0.17
2013-1-23,11,6,-3,3,-5,-15,69,59,51,29.79,29.68,4,1,8,0.00
2013-1-24,27,6,-12,11,-6,-24,68,57,43,30.05,29.67,7,2,15,0.00
2013-1-25,20,13,6,6,2,-3,71,62,44,30.04,29.67,4,2,9,0.00
2013-1-26,32,23,4,28,14,-5,89,67,57,30.06,29.91,8,3,13,3.32
2013-1-27,36,21,12,15,9,2,79,60,34,30.17,29.99,4,1,8,0.08
2013-1-28,37,30,19,35,24,9,92,78,54,30.02,29.48,8,4,15,0.13
2013-1-29,48,38,32,48,37,30,99,94,91,29.69,29.44,7,2,13,0.18
2013-1-30,61,56,47,54,50,46,98,82,73,29.43,28.71,12,7,24,0.07
2013-1-31,54,34,24,52,21,4,94,59,34,29.30,28.64,22,11,37,0.46
2013-2-1,28,22,18,17,10,2,83,62,37,29.80,29.30,10,5,21,0.00
2013-2-2,22,18,8,14,6,0,78,59,44,29.80,29.59,9,4,18,0.00
2013-2-3,32,17,0,15,5,-10,74,60,32,29.60,29.40,7,2,14,0.00
2013-2-4,28,21,18,11,7,3,71,53,38,29.57,29.44,12,5,23,0.00
2013-2-5,30,21,12,12,8,-2,73,57,35,29.60,29.47,6,2,11,0.00
2013-2-6,32,23,8,23,9,-2,83,56,27,30.01,29.48,9,3,21,0.00
2013-2-7,31,21,6,14,6,-3,74,54,41,30.08,29.74,9,4,17,0.00
2013-2-8,86,29,21,29,22,13,90,75,50,29.75,29.42,23,6,23,0.00
2013-2-9,26,19,5,17,13,-2,86,76,65,30.03,29.63,5,2,14,0.00
2013-2-10,39,20,-6,19,6,-15,76,55,30,30.04,29.64,9,3,17,0.04
2013-2-11,48,39,34,37,28,17,82,64,47,29.64,29.20,13,8,27,0.08
2013-2-12,38,34,32,29,24,20,85,66,51,29.58,29.33,13,7,30,0.04
2013-2-13,50,32,17,25,19,10,81,61,27,29.54,29.35,6,2,11,0.00
2013-2-14,42,32,16,33,24,10,87,72,50,29.55,29.40,6,3,13,0.07
2013-2-15,43,36,28,34,23,9,86,59,41,29.67,29.39,12,5,29,0.02
2013-2-16,44,26,12,19,12,2,80,58,28,29.67,29.57,4,2,10,0.00
2013-2-17,22,17,13,8,5,-2,74,60,41,29.75,29.49,9,4,19,0.00
2013-2-18,32,22,13,13,7,3,72,52,32,29.89,29.60,6,3,19,0.04
2013-2-19,39,34,27,33,22,9,85,62,45,29.60,29.18,12,6,29,0.07
2013-2-20,29,24,21,18,10,4,77,55,38,29.63,29.36,12,8,27,0.00
2013-2-21,21,18,14,16,10,5,81,69,58,30.03,29.60,10,4,24,0.00
2013-2-22,36,25,9,26,16,1,78,67,54,30.00,29.67,11,4,24,0.00
2013-2-23,41,36,33,34,28,22,85,73,62,29.68,29.48,10,4,21,0.02
2013-2-24,35,32,30,28,23,20,84,69,57,29.65,29.45,7,3,15,0.01
2013-2-25,47,36,27,29,26,21,83,68,39,29.86,29.65,4,2,12,0.01
2013-2-26,45,35,21,29,23,17,85,65,42,29.85,29.52,10,4,20,0.00
2013-2-27,41,36,33,37,32,28,91,86,77,29.52,29.18,11,3,22,0.65
2013-2-28,44,36,33,34,31,29,92,80,58,29.32,29.13,6,3,14,0.17
2013-3-1,34,32,27,31,26,20,87,79,69,29.53,29.31,4,1,12,0.02
2013-3-2,31,26,24,22,19,16,82,73,62,29.54,29.46,6,2,14,0.00
2013-3-3,29,25,22,18,15,11,76,67,50,29.50,29.43,7,3,15,0.00
2013-3-4,34,27,24,20,17,14,74,64,48,29.64,29.47,10,5,21,0.00
2013-3-5,37,28,16,22,18,10,76,66,52,29.72,29.62,4,2,10,0.02
2013-3-6,44,34,15,31,25,10,83,70,53,29.75,29.56,9,4,17,0.00
2013-3-7,42,35,32,31,26,20,85,70,53,29.88,29.74,6,2,14,0.00
2013-3-8,46,34,23,26,22,17,87,64,34,30.00,29.85,7,2,17,0.02
2013-3-9,55,35,20,32,22,15,87,64,32,30.02,29.86,5,1,10,0.00
2013-3-10,60,46,30,33,27,21,75,51,32,29.86,29.62,10,4,17,0.00
2013-3-11,55,50,46,45,33,28,72,52,39,29.65,29.34,14,7,29,0.00
2013-3-12,56,44,37,47,37,26,94,75,53,29.52,29.33,11,4,27,0.27
2013-3-13,41,35,27,34,23,13,87,62,44,29.53,29.43,14,6,29,0.02
2013-3-14,35,27,20,19,9,1,74,48,24,29.65,29.51,12,7,30,0.00
2013-3-15,41,32,25,31,20,8,85,61,44,29.64,29.30,10,4,21,0.01
2013-3-16,32,26,18,18,12,8,71,55,44,29.59,29.45,6,2,11,0.00
2013-3-17,36,26,17,18,11,3,79,54,29,29.97,29.58,5,2,14,0.00
2013-3-18,36,26,15,27,15,3,91,65,27,29.97,29.43,12,5,19,0.00
2013-3-19,43,34,28,35,25,14,91,72,42,29.45,29.31,12,6,27,0.09
2013-3-20,40,30,25,21,16,9,65,56,33,29.45,29.39,12,6,23,0.00
2013-3-21,35,28,22,23,14,6,82,57,33,29.44,29.32,10,5,24,0.00
2013-3-22,37,30,25,26,22,18,84,72,51,29.50,29.30,10,5,20,0.05
2013-3-23,44,35,30,27,23,16,86,64,42,29.61,29.46,8,4,20,0.04
2013-3-24,46,35,28,29,22,18,77,59,37,29.60,29.37,6,2,12,0.00
2013-3-25,44,37,32,29,24,20,68,60,45,29.37,29.22,8,3,17,0.00
2013-3-26,52,39,30,33,27,23,85,65,35,29.54,29.31,6,1,19,0.00
2013-3-27,53,40,33,33,28,22,87,62,35,29.65,29.32,7,4,17,0.00
2013-3-28,53,41,33,34,30,23,87,67,35,29.81,29.62,6,3,14,0.01
2013-3-29,55,41,30,32,30,23,85,65,39,29.81,29.73,5,2,14,0.00
2013-3-30,56,37,27,31,20,6,86,54,22,29.92,29.45,9,3,15,0.09
2013-3-31,58,43,32,43,32,22,94,67,36,29.83,29.39,12,4,20,0.14
2013-4-1,42,37,28,40,26,11,95,67,29,29.69,29.31,14,4,26,0.05
2013-4-2,37,29,24,26,19,12,83,66,43,29.84,29.66,11,6,25,0.04
2013-4-3,41,32,27,25,16,6,82,53,27,30.11,29.81,8,4,21,0.02
2013-4-4,61,39,26,28,19,12,77,46,21,30.10,29.67,9,4,17,0.00
2013-4-5,50,39,31,32,25,16,77,56,43,29.88,29.62,8,3,21,0.00
2013-4-6,51,39,27,22,14,7,66,38,21,30.08,29.84,8,3,14,0.00
2013-4-7,75,52,42,46,32,20,74,47,28,29.84,29.47,14,8,30,0.00
2013-4-8,62,50,41,46,39,35,87,67,43,29.89,29.53,9,2,16,0.01
2013-4-9,67,54,46,52,46,43,96,77,51,29.86,29.51,8,4,21,0.00
2013-4-10,48,44,40,48,44,40,99,98,96,29.83,29.63,6,3,12,0.45
2013-4-11,41,36,33,40,33,24,99,89,60,29.90,29.71,8,4,14,0.21
2013-4-12,50,41,35,49,39,32,99,92,75,29.78,29.34,12,7,21,0.56
2013-4-13,49,44,40,40,36,31,86,74,53,29.68,29.51,11,5,18,0.00
2013-4-14,52,42,35,35,30,24,90,64,43,29.93,29.68,7,3,14,0.02
2013-4-15,74,49,31,51,37,27,90,65,41,29.96,29.79,11,5,17,0.00
2013-4-16,63,55,44,60,50,35,99,84,69,29.99,29.72,14,6,21,0.18
2013-4-17,59,47,32,42,36,29,99,68,35,30.11,29.92,6,2,13,0.01
2013-4-18,74,59,39,60,50,36,96,73,51,30.06,29.54,14,8,31,0.04
2013-4-19,78,60,43,63,53,33,95,78,60,29.61,29.15,14,9,36,0.33
2013-4-20,47,41,34,33,28,19,74,60,42,30.15,29.50,15,7,33,0.00
2013-4-21,49,38,28,30,21,7,79,52,22,30.43,30.15,5,2,11,0.00
2013-4-22,63,46,28,33,28,22,96,55,22,30.38,30.13,10,4,21,0.00
2013-4-23,56,47,40,41,34,27,82,61,46,30.13,29.67,11,6,20,0.33
2013-4-24,69,55,42,57,47,36,98,77,54,29.86,29.48,13,7,27,0.05
2013-4-25,64,48,38,40,32,22,95,59,21,30.18,29.85,9,4,22,0.06
2013-4-26,57,46,35,44,36,30,99,73,41,30.33,30.17,6,2,14,0.02
2013-4-27,76,52,32,44,36,30,99,64,22,30.32,30.10,5,2,11,0.00
2013-4-28,76,59,40,50,42,35,98,58,25,30.11,29.91,12,4,21,0.11
2013-4-29,65,56,51,57,51,45,99,82,67,29.97,29.88,10,7,17,0.12
2013-4-30,73,62,55,58,55,53,97,78,53,30.11,29.94,10,5,19,0.01
2013-5-1,80,64,52,54,44,30,89,54,18,30.24,30.11,10,3,20,0.00
2013-5-2,83,64,50,48,42,36,87,49,22,30.30,30.13,6,2,13,0.00
2013-5-3,81,65,49,53,46,42,91,55,28,30.19,30.09,7,3,15,0.00
2013-5-4,81,62,48,48,43,39,86,52,25,30.16,30.02,7,2,14,0.00
2013-5-5,85,64,46,51,46,38,98,59,22,30.06,29.95,6,2,13,0.00
2013-5-6,81,63,47,50,40,23,93,50,13,30.03,29.89,7,2,17,0.00
2013-5-7,84,66,50,60,54,48,99,68,34,29.99,29.88,7,2,14,0.00
2013-5-8,74,63,52,65,58,52,99,86,63,29.94,29.78,6,2,12,0.01
2013-5-9,79,63,52,62,57,51,99,83,52,29.83,29.74,5,2,10,0.00
2013-5-10,76,63,48,63,57,9,99,84,12,29.83,29.61,8,2,15,0.33
2013-5-11,62,57,49,60,54,47,99,90,65,29.65,29.53,7,3,17,0.26
2013-5-12,56,48,38,47,37,25,98,70,33,29.77,29.55,15,6,34,0.01
2013-5-13,55,44,38,37,33,26,88,66,35,29.98,29.77,9,5,21,0.00
2013-5-14,64,48,29,44,32,22,99,60,26,30.02,29.85,6,2,15,0.00
2013-5-15,85,59,43,62,45,31,95,61,41,29.85,29.39,9,4,24,0.11
2013-5-16,80,63,42,53,44,32,99,57,22,29.86,29.58,8,2,26,0.00
2013-5-17,73,56,38,49,43,33,99,68,25,30.10,29.86,4,1,11,0.00
2013-5-18,79,58,39,54,46,38,99,69,33,30.13,30.02,5,1,11,0.00
2013-5-19,77,66,58,64,59,53,92,80,63,30.04,29.90,7,4,15,0.00
2013-5-20,89,74,59,70,65,59,99,74,50,29.92,29.73,6,2,14,0.00
2013-5-21,91,72,60,75,67,60,99,87,53,29.93,29.63,8,2,18,0.59
2013-5-22,89,72,60,75,67,58,99,84,48,29.93,29.78,7,2,17,0.17
2013-5-23,79,68,47,70,63,47,99,84,58,29.97,29.83,7,2,14,0.46
2013-5-24,49,44,41,47,43,40,99,95,81,30.28,29.97,5,2,16,0.25
2013-5-25,64,52,42,42,39,34,92,64,35,30.30,30.23,8,3,21,0.00
2013-5-26,67,54,40,42,38,30,99,58,28,30.31,30.19,7,3,17,0.00
2013-5-27,75,59,41,48,39,21,93,54,15,30.38,30.26,4,1,11,0.00
2013-5-28,64,56,45,59,53,44,99,90,73,30.29,30.08,6,2,13,0.37
2013-5-29,86,70,59,73,65,59,99,84,54,30.15,30.03,7,2,16,0.59
2013-5-30,96,77,62,74,67,61,99,75,37,30.25,30.14,4,1,11,0.00
2013-5-31,95,79,64,73,67,62,99,72,37,30.21,30.05,6,2,11,0.00
2013-6-1,92,76,63,72,68,62,99,78,47,30.09,29.91,8,2,17,0.01
2013-6-2,83,72,57,71,65,54,99,81,47,30.00,29.82,10,3,23,0.11
2013-6-3,69,58,48,54,47,39,91,71,40,30.13,30.00,6,2,17,0.00
2013-6-4,75,58,43,50,43,32,99,65,24,30.28,30.12,5,1,14,0.00
2013-6-5,76,60,48,58,49,41,99,71,34,30.34,30.21,4,1,11,0.00
2013-6-6,59,56,53,58,54,47,99,93,68,30.22,29.99,18,3,18,1.90
2013-6-7,65,60,55,65,60,55,99,98,97,30.00,29.91,4,1,10,0.21
2013-6-8,68,61,56,63,59,56,99,94,79,30.20,29.90,3,1,9,0.01
2013-6-9,83,67,54,61,57,53,99,75,42,30.32,30.20,4,1,9,0.00
2013-6-10,70,64,58,67,62,49,99,93,76,30.28,29.87,6,3,17,0.33
2013-6-11,69,64,58,66,62,57,99,93,79,29.94,29.76,6,2,15,0.80
2013-6-12,82,66,52,61,56,51,99,74,41,30.06,29.92,4,1,10,0.01
2013-6-13,65,61,55,61,59,54,99,94,80,29.92,29.67,9,3,21,0.74
2013-6-14,80,65,50,63,58,50,99,79,50,30.08,29.89,5,2,14,0.01
2013-6-15,81,62,51,59,53,46,99,77,31,30.16,30.06,6,1,12,0.00
2013-6-16,80,67,59,69,62,57,99,85,63,30.07,29.83,5,2,14,0.27
2013-6-17,83,70,59,68,63,58,99,80,46,30.05,29.94,6,2,14,0.00
2013-6-18,75,63,52,62,55,48,99,78,42,30.15,30.02,6,2,14,0.00
2013-6-19,76,60,47,55,47,38,99,67,29,30.33,30.15,4,1,11,0.00
2013-6-20,81,61,46,57,47,36,99,68,22,30.37,30.32,4,1,10,0.00
2013-6-21,88,68,49,62,56,48,99,70,31,30.39,29.83,4,1,8,0.00
2013-6-22,92,75,59,77,68,59,99,82,47,29.85,29.69,5,1,12,0.06
2013-6-23,94,78,68,77,72,68,99,85,53,29.77,29.69,11,2,21,0.30
2013-6-24,95,81,68,75,70,64,99,73,44,29.73,29.62,6,2,17,0.00
2013-6-25,89,77,68,76,70,67,99,80,57,29.64,29.47,6,2,17,0.04
2013-6-26,91,77,68,75,70,67,99,82,52,29.51,29.47,5,2,11,0.24
2013-6-27,86,74,64,75,70,63,99,87,61,29.51,29.31,7,1,15,0.01
2013-6-28,71,67,62,68,65,62,99,95,84,29.31,29.19,4,1,11,0.77
2013-6-29,83,69,62,69,64,62,99,86,55,29.39,29.18,4,1,9,0.12
2013-6-30,86,72,64,70,66,63,99,83,56,29.61,29.38,6,1,11,0.00
2013-7-1,73,67,62,69,66,62,99,95,83,29.71,29.60,5,1,14,0.32
2013-7-2,87,70,62,75,66,61,99,90,65,29.80,29.69,3,1,11,0.05
2013-7-3,94,75,65,79,71,64,99,88,54,29.85,29.77,4,1,9,0.51
2013-7-4,92,78,69,78,73,69,99,86,52,29.87,29.78,4,1,9,0.06
2013-7-5,91,78,69,80,74,69,99,89,63,29.83,29.74,5,1,11,0.19
2013-7-6,94,79,68,74,70,14,99,78,45,29.83,29.71,4,1,8,0.01
2013-7-7,89,79,70,76,72,16,99,82,55,29.74,29.61,6,2,12,0.09
2013-7-8,91,77,68,77,71,67,99,84,54,29.74,29.65,5,1,10,0.18
2013-7-9,93,76,69,76,72,68,99,88,56,29.74,29.60,4,1,12,0.07
2013-7-10,92,80,72,77,73,65,99,82,58,29.60,29.40,9,3,21,0.17
2013-7-11,84,73,62,68,64,62,99,77,54,29.71,29.49,4,2,11,0.00
2013-7-12,83,70,60,69,64,60,99,82,53,29.86,29.70,3,1,9,0.00
2013-7-13,85,74,63,74,68,16,99,85,65,29.95,29.83,4,2,9,0.00
2013-7-14,95,80,66,78,72,66,99,79,52,30.00,29.93,4,1,10,0.00
2013-7-15,95,81,69,79,72,67,99,77,44,29.98,29.83,2,1,8,0.00
2013-7-16,97,81,66,75,70,66,99,73,42,29.95,29.88,2,1,7,0.00
2013-7-17,99,82,68,82,75,68,99,83,46,29.91,29.75,5,1,13,0.17
2013-7-18,97,83,74,80,77,73,99,82,51,29.77,29.62,6,1,14,0.11
2013-7-19,96,84,71,79,74,66,99,76,49,29.63,29.41,10,4,25,0.07
2013-7-20,85,74,66,74,69,17,99,87,13,29.57,29.40,6,2,18,0.34
2013-7-21,82,71,61,67,63,58,99,79,47,29.71,29.57,4,1,11,0.00
2013-7-22,88,72,58,71,65,58,99,81,53,29.69,29.48,4,1,8,0.02
2013-7-23,90,77,69,72,69,64,99,80,46,29.48,29.29,6,2,14,0.06
2013-7-24,74,65,52,64,56,50,99,74,47,29.73,29.36,5,2,18,0.00
2013-7-25,80,64,48,60,55,48,99,74,43,29.81,29.73,5,1,12,0.00
2013-7-26,86,67,50,65,56,50,99,73,36,29.78,29.70,3,1,9,0.00
2013-7-27,85,69,55,71,64,17,99,86,57,29.70,29.55,6,2,14,0.11
2013-7-28,81,70,61,71,66,61,99,87,58,29.82,29.51,4,1,12,0.09
2013-7-29,77,65,55,64,59,54,99,84,53,29.81,29.66,6,2,13,0.02
2013-7-30,84,68,59,66,61,58,99,79,46,29.88,29.77,5,1,11,0.00
2013-7-31,84,70,55,67,61,54,99,77,47,29.84,29.63,4,1,11,0.00
2013-8-1,84,71,61,73,66,60,99,86,53,29.64,29.45,6,2,17,0.18
2013-8-2,79,68,57,69,63,57,99,85,59,29.59,29.52,4,1,20,0.21
2013-8-3,83,70,61,67,61,54,99,78,41,29.60,29.49,5,1,15,0.20
2013-8-4,76,65,56,65,58,53,99,79,50,29.71,29.58,6,2,16,0.01
2013-8-5,83,66,49,61,55,48,99,74,31,29.78,29.70,4,1,12,0.00
2013-8-6,86,68,52,64,58,52,99,74,39,29.75,29.69,4,1,10,0.00
2013-8-7,81,72,65,71,67,63,97,83,69,29.71,29.59,7,3,20,0.00
2013-8-8,90,75,67,75,70,67,99,87,56,29.66,29.60,5,1,11,0.17
2013-8-9,83,72,63,75,69,62,99,93,64,29.61,29.53,3,0,9,0.22
2013-8-10,79,68,54,65,58,47,99,74,35,29.77,29.60,4,2,14,0.00
2013-8-11,84,66,50,63,57,50,99,77,46,29.83,29.73,4,1,10,0.00
2013-8-12,84,70,58,69,63,57,99,82,47,29.73,29.55,5,1,10,0.00
2013-8-13,80,68,61,72,63,50,99,84,57,29.55,29.42,5,2,17,0.26
2013-8-14,75,62,53,60,54,50,99,76,46,29.73,29.49,6,3,17,0.01
2013-8-15,81,63,48,60,54,48,99,77,42,29.81,29.72,6,1,15,0.00
2013-8-16,85,66,50,62,56,49,99,75,37,29.88,29.79,3,1,8,0.00
2013-8-17,89,68,52,66,59,51,99,78,40,29.99,29.88,4,1,9,0.00
2013-8-18,86,68,57,67,61,57,99,81,45,29.93,29.78,3,1,7,0.00
2013-8-19,90,72,56,68,62,56,99,77,36,29.80,29.71,4,1,9,0.01
2013-8-20,92,72,56,69,63,56,99,78,39,29.82,29.73,6,1,11,0.00
2013-8-21,91,73,58,71,65,58,99,79,43,29.85,29.70,5,1,10,0.00
2013-8-22,90,73,62,76,68,61,99,87,52,29.72,29.56,7,2,17,0.28
2013-8-23,80,68,54,69,60,54,99,79,46,29.89,29.65,5,1,11,0.01
2013-8-24,84,66,51,64,55,48,99,74,33,30.04,29.88,8,1,10,0.00
2013-8-25,86,67,50,68,59,49,99,79,40,30.01,29.81,5,1,13,0.00
2013-8-26,79,70,65,74,69,63,99,95,83,29.83,29.61,4,1,10,1.05
2013-8-27,93,75,66,75,70,66,99,89,54,29.64,29.57,4,0,8,0.01
2013-8-28,91,76,64,76,70,64,99,84,58,29.63,29.55,4,1,10,0.00
2013-8-29,89,74,62,76,68,9,99,85,59,29.73,29.62,3,1,9,0.00
2013-8-30,92,74,61,75,68,60,99,83,45,29.70,29.47,4,1,10,0.01
2013-8-31,89,75,68,77,72,68,99,90,62,29.55,29.42,4,1,11,0.14
2013-9-1,92,75,65,74,70,65,99,85,48,29.55,29.42,6,1,14,0.33
2013-9-2,89,73,68,78,70,64,99,90,63,29.48,29.34,5,1,14,0.06
2013-9-3,75,65,60,64,61,58,99,86,60,29.61,29.45,6,2,16,0.01
2013-9-4,87,69,52,65,59,50,99,73,34,29.65,29.60,8,2,20,0.07
2013-9-5,74,63,48,65,52,43,99,73,39,29.88,29.63,6,1,14,0.00
2013-9-6,76,59,43,57,49,42,99,75,35,29.94,29.78,4,1,10,0.00
2013-9-7,68,60,51,64,58,51,99,93,76,29.78,29.55,3,1,7,0.12
2013-9-8,74,63,48,63,53,42,99,76,34,29.78,29.51,6,2,19,0.12
2013-9-9,80,61,46,63,53,44,99,77,43,29.83,29.67,8,2,17,0.00
2013-9-10,94,76,65,80,71,60,99,84,59,29.74,29.59,9,3,19,0.81
2013-9-11,98,82,71,81,75,70,99,80,48,29.72,29.59,6,2,11,0.00
2013-9-12,77,70,62,73,68,62,99,94,81,29.61,29.40,6,1,11,0.12
2013-9-13,63,56,51,62,56,51,99,98,92,29.68,29.40,3,1,11,0.80
2013-9-14,71,54,44,67,49,43,99,84,48,30.00,29.66,4,1,15,3.66
2013-9-15,70,57,44,59,51,43,99,84,54,29.99,29.87,4,1,14,0.01
2013-9-16,61,53,45,55,50,44,99,93,63,30.21,29.90,6,1,13,0.14
2013-9-17,71,52,36,51,43,35,99,76,33,30.32,30.14,4,1,11,0.01
2013-9-18,79,58,42,56,48,42,99,76,33,30.14,29.95,5,1,10,0.00
2013-9-19,85,64,46,60,53,45,99,73,41,29.97,29.86,4,1,10,0.00
2013-9-20,84,65,50,63,54,49,99,74,33,30.62,30.53,6,1,10,0.00
2013-9-21,86,70,50,68,62,50,99,80,40,30.58,29.89,7,2,18,0.47
2013-9-22,63,54,50,56,49,42,99,83,53,30.26,29.96,6,2,16,0.01
2013-9-23,66,52,41,49,44,41,99,76,47,30.40,30.24,4,1,12,0.00
2013-9-24,71,52,37,53,45,36,99,80,43,30.37,30.24,4,1,14,0.00
2013-9-25,76,55,39,58,47,39,99,80,38,30.26,30.21,3,1,9,0.00
2013-9-26,77,57,41,59,50,-6,99,81,48,30.40,30.25,5,1,11,0.00
2013-9-27,76,57,41,61,51,41,99,83,54,30.51,30.40,4,1,11,0.00
2013-9-28,77,58,44,59,52,44,99,82,48,30.57,30.44,6,2,14,0.00
2013-9-29,79,61,48,57,53,47,99,78,43,30.45,30.27,8,2,17,0.01
2013-9-30,89,65,51,64,57,51,99,79,40,30.29,30.20,4,1,9,0.00
2013-10-1,84,66,53,65,60,53,99,83,46,30.28,30.17,4,1,9,0.04
2013-10-2,85,64,50,68,58,46,99,83,35,30.34,30.17,7,1,13,0.00
2013-10-3,78,59,44,60,52,43,99,81,35,30.40,30.29,3,1,9,0.01
2013-10-4,68,62,58,66,61,58,99,98,95,30.32,30.25,3,0,6,0.12
2013-10-5,68,62,60,63,61,59,99,96,83,30.35,30.29,3,1,8,0.00
2013-10-6,82,67,60,74,65,59,99,94,77,30.29,30.04,8,3,19,0.47
2013-10-7,73,63,52,68,59,47,99,86,61,30.27,29.88,9,4,31,0.91
2013-10-8,73,55,42,55,48,42,99,81,41,30.60,30.26,4,1,15,0.01
2013-10-9,75,53,37,56,44,33,99,80,28,30.66,30.53,4,1,11,0.00
2013-10-10,70,52,40,54,46,40,99,84,47,30.53,30.40,3,0,8,0.00
2013-10-11,82,54,42,58,49,42,99,85,36,30.40,30.34,3,0,7,0.00
2013-10-12,82,58,38,56,47,38,99,75,23,30.46,30.36,4,1,9,0.01
2013-10-13,75,62,49,59,55,48,99,80,53,30.54,30.46,6,3,14,0.11
2013-10-14,59,58,56,59,57,56,99,99,99,30.57,30.50,5,2,11,0.34
2013-10-15,72,57,45,60,53,44,99,89,59,30.53,30.23,5,1,13,0.01
2013-10-16,66,60,56,59,55,49,99,86,67,30.23,30.02,8,3,16,0.25
2013-10-17,73,58,45,56,52,44,99,82,43,30.12,29.90,5,2,17,0.34
2013-10-18,68,54,44,53,47,39,99,79,43,30.15,29.93,9,3,22,0.08
2013-10-19,65,54,46,52,47,43,99,79,49,30.14,29.88,9,3,23,0.12
2013-10-20,60,49,40,47,43,39,99,79,47,30.25,29.97,9,4,20,0.00
2013-10-21,67,55,44,47,44,39,98,68,38,30.25,30.03,8,3,17,0.00
2013-10-22,58,49,37,52,40,30,99,75,36,30.10,29.98,8,2,19,0.08
2013-10-23,51,41,34,44,38,31,99,89,62,30.08,29.93,4,1,14,0.07
2013-10-24,52,41,34,40,35,29,99,79,43,30.24,30.00,11,4,25,0.08
2013-10-25,55,43,37,44,39,35,99,86,51,30.42,30.24,6,2,14,0.02
2013-10-26,48,44,41,40,34,29,94,67,53,30.38,30.03,12,5,27,0.00
2013-10-27,56,45,39,40,37,32,95,74,46,30.31,30.05,9,3,17,0.00
2013-10-28,56,43,27,43,34,24,97,72,32,30.65,30.27,7,2,17,0.00
2013-10-29,56,37,23,33,27,21,99,70,31,30.72,30.56,5,1,8,0.00
2013-10-30,66,45,37,45,39,29,99,83,42,30.56,30.37,4,1,8,0.04
2013-10-31,60,54,41,60,53,40,99,97,93,30.38,29.71,8,4,17,0.48
2013-11-1,68,60,49,61,51,43,99,76,43,29.95,29.46,14,7,38,0.30
2013-11-2,56,47,39,49,46,38,99,94,73,30.22,29.86,6,2,14,0.27
2013-11-3,54,36,28,38,28,19,97,73,42,30.78,30.06,6,2,12,0.00
2013-11-4,49,36,24,36,22,9,99,61,22,30.90,30.74,6,2,13,0.00
2013-11-5,55,46,37,40,31,22,70,54,39,30.75,30.59,9,5,17,0.00
2013-11-6,64,55,47,53,47,40,87,74,54,30.61,30.07,10,6,23,0.00
2013-11-7,59,46,38,55,42,32,99,84,64,30.22,30.02,8,4,20,0.35
2013-11-8,45,39,34,38,32,29,99,77,59,30.45,30.16,6,3,19,0.13
2013-11-9,47,42,36,36,32,28,82,68,53,30.45,30.03,8,3,15,0.00
2013-11-10,50,44,38,43,38,33,98,79,61,30.37,30.01,10,5,39,0.22
2013-11-11,48,40,32,39,33,27,97,78,53,30.38,30.16,10,4,24,0.08
2013-11-12,37,30,28,28,22,14,91,71,51,30.61,30.33,8,3,17,0.01
2013-11-13,43,32,21,25,18,11,73,55,44,30.66,30.34,10,4,21,0.01
2013-11-14,58,40,24,29,20,10,73,46,22,30.36,30.26,10,3,22,0.00
2013-11-15,54,43,34,33,27,20,77,55,29,30.37,30.30,8,2,15,0.00
2013-11-16,63,49,35,42,35,27,79,60,34,30.50,30.33,5,2,11,0.00
2013-11-17,60,55,49,57,51,42,98,89,78,30.33,29.63,12,7,24,0.13
2013-11-18,60,49,38,57,38,27,98,66,47,30.10,29.61,15,9,41,0.30
2013-11-19,40,36,32,34,27,22,97,70,54,30.65,30.10,9,4,24,0.09
2013-11-20,44,32,23,23,18,14,74,56,31,30.84,30.67,6,3,10,0.00
2013-11-21,47,39,28,38,26,14,90,59,43,30.74,30.51,9,5,17,0.00
2013-11-22,47,43,36,47,42,30,99,96,77,30.51,30.19,9,2,20,0.25
2013-11-23,41,30,20,30,22,5,96,71,31,30.38,30.20,13,6,30,0.01
2013-11-24,31,21,18,18,13,6,87,72,42,30.62,30.33,8,4,20,0.00
2013-11-25,52,28,18,18,14,7,85,56,31,30.60,29.67,9,5,16,0.01
2013-11-26,38,34,33,32,27,14,96,78,43,30.41,30.05,10,2,17,0.01
2013-11-27,38,32,25,34,28,16,99,87,67,30.09,29.81,8,3,21,0.38
2013-11-28,36,25,22,18,14,7,81,62,32,30.67,30.09,8,4,21,0.01
2013-11-29,38,24,9,23,13,1,86,66,33,30.98,30.67,5,1,13,0.05
2013-11-30,33,24,8,20,12,1,83,62,44,30.98,30.47,10,4,22,0.00
2013-12-1,40,34,32,32,26,19,94,72,59,30.47,30.22,7,3,14,0.11
2013-12-2,42,36,33,37,33,30,97,89,77,30.22,30.11,2,0,4,0.00
2013-12-3,51,35,25,35,27,21,94,77,41,30.27,30.14,4,1,8,0.00
2013-12-4,53,38,26,39,32,23,93,83,59,30.30,30.21,6,2,9,0.01
2013-12-5,58,51,41,53,45,32,90,81,63,30.25,30.00,9,5,26,0.01
2013-12-6,42,35,31,35,28,24,92,76,62,30.49,30.24,4,2,11,0.31
2013-12-7,38,30,27,27,18,9,85,61,33,30.78,30.46,8,4,18,0.00
2013-12-8,36,27,21,23,13,8,86,56,34,30.82,30.50,8,4,14,0.00
2013-12-9,42,35,26,36,28,20,90,77,61,30.50,30.08,12,7,24,0.06
2013-12-10,35,27,22,23,14,4,84,57,43,30.28,30.16,10,4,21,0.00
2013-12-11,29,23,18,16,9,4,76,54,38,30.49,30.28,12,6,27,0.00
2013-12-12,35,18,11,11,7,0,77,61,39,30.54,30.19,11,4,22,0.00
2013-12-13,25,20,11,19,10,2,82,64,48,30.64,30.22,9,4,22,0.00
2013-12-14,16,12,7,9,2,-11,77,65,42,30.71,30.04,10,6,18,0.00
2013-12-15,28,21,15,21,14,5,84,74,48,30.06,29.82,10,4,23,0.00
2013-12-16,25,15,-7,15,5,-16,76,65,48,30.44,30.06,11,3,25,0.00
2013-12-17,28,14,-12,22,7,-23,84,73,54,30.42,30.14,6,2,11,0.00
2013-12-18,35,29,20,22,19,13,86,68,48,30.31,30.16,7,3,15,0.05
2013-12-19,47,35,27,30,24,15,82,63,43,30.30,30.13,7,3,16,0.01
2013-12-20,45,40,34,41,35,29,94,84,71,30.26,30.03,4,1,8,0.09
2013-12-21,51,42,32,50,40,31,99,95,92,30.13,29.98,6,2,17,0.58
2013-12-22,46,36,32,44,35,31,99,95,86,30.22,29.80,5,1,14,0.18
2013-12-23,41,36,28,40,33,23,99,89,78,30.50,30.20,5,1,14,0.02
2013-12-24,28,21,14,23,16,7,87,80,66,30.71,30.43,0,0,0,0.00
2013-12-25,25,16,0,12,6,-8,79,64,45,30.77,30.47,6,0,16,0.00
2013-12-26,38,28,24,33,19,11,84,68,53,30.50,30.29,10,4,18,0.02
2013-12-27,33,27,21,26,18,9,87,71,51,30.50,30.36,10,3,19,0.01
2013-12-28,52,36,27,35,28,23,91,74,50,30.36,30.19,6,2,16,0.00
2013-12-29,44,37,28,39,32,25,98,84,58,30.19,29.88,8,2,23,0.18
2013-12-30,34,20,11,29,12,2,87,72,43,30.46,29.98,6,0,21,0.01
2013-12-31,28,19,14,17,6,-6,76,57,36,30.46,30.19,14,4,33,0.00
2014-1-1,26,18,12,13,4,-1,69,54,43,30.62,30.46,8,4,22,0.00
2014-1-2,15,9,4,8,2,-4,75,70,67,30.56,30.20,10,5,23,0.00